Aberdeen, Washington
Current Conditions -  °F | °C
As of 8:53 AM on Monday 24 Nov 2014 (Local Time) from KHQM Reporting Station
Overcast Overcast  
Wind Chill: 38°   Ceiling: 2600
Heat Index: 43°   Visibility: 7mi
Dew Point: 42°   Wind: 9mph
Humidity: 97%   Direction: 60°ENE
Pressure: 30.32"   Gusts: NA
Location:  46.98°N, 123.81°W
Report Text: KHQM 241653Z AUTO 06008KT 7SM FEW020 BKN026 OVC036 06/06 A3032 RMK AO2 SLP270 T00610056
Loading
Personal Weather Stations






























Interactive Weather Map New forecast layout! Learn more

10-Day Weather Forecast

Advertisements
Track Severe Weather on mobile